Ana Sayfa
METAR-TAF:

METAR-TAF

Havaalanları :

Los Mochis, Meksika

Enlem: 25-41N, Boylam: 109-05W, yükseklik: 4 m

Güncel hava durumu gözlemi

Rapor saat 17:42 UTC de 45 dakika önce yapıldı.
Rüzgar kuzey/kuzeybatıdan 17 kt
Sıcaklık 21°C
Nem 46%
Basınç 1019 hPa
Görüş mesafesi: 16.1 km
Açık gökyüzü

METAR: MMLM 101742Z 33017KT 10SM SKC 21/09 A3008 RMK SLP187 HZY

Saat: 11:27 (18:27 UTC)

Tahmin

Rapor saat 16:47 UTC de 1 saat ve 40 dakika önce yapıldı.
Ayın 10'si saat 18 UTC'den ayın 11'si saat 18 UTC'ye kadar geçerli Tahmin
Rüzgar kuzeybatıdan 15 kt
Görüş mesafesi: 10 km
Açık gökyüzü
Dönüşüyor
ayın 11'si saat 01 UTC'den ayın 11'si saat 02 UTC'ye kadar
Rüzgar kuzeydan kt
Ayın 11'si saat 1500 UTC'den
Rüzgar kuzeydan 10 kt
Görüş mesafesi: 10 km
Açık gökyüzü

TAF: MMLM 101647Z 1018/1118 32015KT P6SM SKC BECMG 1101/1102 00000KT FM111500 36010KT P6SM SKC

4.000'den fazla havaalanı için hava durumu gözlemleri ve tahminleri (METAR ve TAF raporları).

Kullanılabilir istasyonlar harita üzerinde sarı ve kırmızı noktalarla gösterilir.

İstasyonun adını görmek için fareyi noktanın üzerinde gezdirin.

Sonrasında hava gözlem ve tahminlerini görmek için tıklayın.

Haritayı değiştirmek için: yaklaştırmak için siyah artı işaretli yeşil düğmeye ve uzaklaştırmak için de eksi işaretli düğmeye hızla tıklayın; bitişik haritalar için yeşil okları kullanın.


METAR-TAF: